createdAt,value
2018-10-17T00:00:22.368Z,77.70
2018-10-17T00:02:51.201Z,77.52
2018-10-17T00:05:20.057Z,77.47
2018-10-17T00:07:48.921Z,77.36
2018-10-17T00:10:18.107Z,76.81
2018-10-17T00:12:46.910Z,76.95
2018-10-17T00:15:15.805Z,76.75
2018-10-17T00:17:44.666Z,76.62
2018-10-17T00:20:13.503Z,76.71
2018-10-17T00:22:42.334Z,76.99
2018-10-17T00:25:11.336Z,77.19
2018-10-17T00:27:40.172Z,77.27
2018-10-17T00:30:11.074Z,77.08
2018-10-17T00:32:39.961Z,77.07
2018-10-17T00:35:09.793Z,76.82
2018-10-17T00:37:38.652Z,76.75
2018-10-17T00:40:07.750Z,76.97
2018-10-17T00:42:36.842Z,76.89
2018-10-17T00:45:06.626Z,76.69
2018-10-17T00:47:35.584Z,76.39
2018-10-17T00:50:04.501Z,76.59
2018-10-17T00:52:33.387Z,76.33
2018-10-17T00:55:02.401Z,76.34
2018-10-17T00:57:31.225Z,76.84
2018-10-17T01:00:00.113Z,76.81
2018-10-17T01:02:28.974Z,76.79
2018-10-17T01:04:57.834Z,76.53
2018-10-17T01:07:26.634Z,76.17
2018-10-17T01:09:55.594Z,76.04
2018-10-17T01:12:24.431Z,76.12
2018-10-17T01:14:54.493Z,75.79
2018-10-17T01:17:24.071Z,75.86
2018-10-17T01:19:53.066Z,75.91
2018-10-17T01:22:21.967Z,76.17
2018-10-17T01:24:50.794Z,76.47
2018-10-17T01:27:19.705Z,76.81
2018-10-17T01:29:50.847Z,76.83
2018-10-17T01:32:19.715Z,76.63
2018-10-17T01:34:48.583Z,76.43
2018-10-17T01:37:17.412Z,76.91
2018-10-17T01:39:46.363Z,76.47
2018-10-17T01:42:15.356Z,77.02
2018-10-17T01:44:45.174Z,76.91
2018-10-17T01:47:14.217Z,76.82
2018-10-17T01:49:43.183Z,76.48
2018-10-17T01:52:11.923Z,76.53
2018-10-17T01:54:40.777Z,76.25
2018-10-17T01:57:09.725Z,76.13
2018-10-17T01:59:38.568Z,76.18
2018-10-17T02:02:07.530Z,76.38
2018-10-17T02:04:36.334Z,76.40
2018-10-17T02:07:05.420Z,76.29
2018-10-17T02:09:34.324Z,76.23
2018-10-17T02:12:03.248Z,76.48
2018-10-17T02:14:32.060Z,76.13
2018-10-17T02:17:01.306Z,76.23
2018-10-17T02:19:30.153Z,75.51
2018-10-17T02:21:59.153Z,75.88
2018-10-17T02:24:27.962Z,76.31
2018-10-17T02:26:56.806Z,76.43
2018-10-17T02:29:25.640Z,76.39
2018-10-17T02:31:54.570Z,76.39
2018-10-17T02:34:23.407Z,76.20
2018-10-17T02:36:52.355Z,76.26
2018-10-17T02:39:21.376Z,76.68
2018-10-17T02:41:50.214Z,76.30
2018-10-17T02:44:19.083Z,76.70
2018-10-17T02:46:47.936Z,76.68
2018-10-17T02:49:16.831Z,77.19
2018-10-17T02:51:45.659Z,77.29
2018-10-17T02:54:14.526Z,77.99
2018-10-17T02:56:43.370Z,77.89
2018-10-17T02:59:12.299Z,77.76
2018-10-17T03:01:41.573Z,77.99
2018-10-17T03:04:10.413Z,78.03
2018-10-17T03:06:39.194Z,77.86
2018-10-17T03:09:09.111Z,77.84
2018-10-17T03:11:37.837Z,77.72
2018-10-17T03:14:06.683Z,77.67
2018-10-17T03:16:35.603Z,77.69
2018-10-17T03:19:04.506Z,77.58
2018-10-17T03:21:33.458Z,77.42
2018-10-17T03:24:02.309Z,77.23
2018-10-17T03:26:31.514Z,77.38
2018-10-17T03:29:00.374Z,77.57
2018-10-17T03:31:29.314Z,77.52
2018-10-17T03:33:58.135Z,77.44
2018-10-17T03:36:26.973Z,77.41
2018-10-17T03:38:55.943Z,77.48
2018-10-17T03:41:24.760Z,77.54
2018-10-17T03:43:53.607Z,77.51
2018-10-17T03:46:22.503Z,77.54
2018-10-17T03:48:52.291Z,77.47
2018-10-17T03:51:21.569Z,77.66
2018-10-17T03:53:50.576Z,77.48
2018-10-17T03:56:19.748Z,77.73
2018-10-17T03:58:48.854Z,77.44
2018-10-17T04:01:19.395Z,77.29
2018-10-17T04:03:48.997Z,77.41
2018-10-17T04:09:09.094Z,77.60
2018-10-17T04:11:37.875Z,77.40
2018-10-17T04:14:06.727Z,77.53
2018-10-17T04:16:35.612Z,77.17
2018-10-17T04:19:04.560Z,77.30
2018-10-17T04:21:33.463Z,77.38
2018-10-17T04:24:02.405Z,77.30
2018-10-17T04:26:31.300Z,77.75
2018-10-17T04:29:00.154Z,77.71
2018-10-17T04:31:29.001Z,77.70
2018-10-17T04:33:57.857Z,77.71
2018-10-17T04:36:26.759Z,77.68
2018-10-17T04:38:56.759Z,77.66
2018-10-17T04:41:25.622Z,77.59
2018-10-17T04:43:54.376Z,77.54
2018-10-17T04:46:23.265Z,77.71
2018-10-17T04:48:52.260Z,77.69
2018-10-17T04:51:21.066Z,78.29
2018-10-17T04:53:49.943Z,78.29
2018-10-17T04:56:18.763Z,78.50
2018-10-17T04:58:47.612Z,78.32
2018-10-17T05:01:16.504Z,78.72
2018-10-17T05:03:45.410Z,78.59
2018-10-17T05:06:14.332Z,78.41
2018-10-17T05:08:43.250Z,78.48
2018-10-17T05:11:12.165Z,78.94
2018-10-17T05:13:42.832Z,79.05
2018-10-17T05:16:11.664Z,78.65
2018-10-17T05:18:40.630Z,78.81
2018-10-17T05:21:09.441Z,78.68
2018-10-17T05:23:38.527Z,78.74
2018-10-17T05:26:07.398Z,78.34
2018-10-17T05:28:36.232Z,78.52
2018-10-17T05:31:05.296Z,78.53
2018-10-17T05:33:34.273Z,78.60
2018-10-17T05:36:03.191Z,78.63
2018-10-17T05:38:32.106Z,78.75
2018-10-17T05:41:01.054Z,78.92
2018-10-17T05:43:30.106Z,78.57
2018-10-17T05:45:59.080Z,78.55
2018-10-17T05:48:28.779Z,77.72
2018-10-17T05:50:57.623Z,77.98
2018-10-17T05:53:26.503Z,77.72
2018-10-17T05:55:55.347Z,77.62
2018-10-17T05:58:24.303Z,77.10
2018-10-17T06:00:53.203Z,77.12
2018-10-17T06:03:22.059Z,77.06
2018-10-17T06:05:51.070Z,76.56
2018-10-17T06:08:19.959Z,76.19
2018-10-17T06:10:48.771Z,75.87
2018-10-17T06:13:17.614Z,75.94
2018-10-17T06:15:46.414Z,76.04
2018-10-17T06:18:15.180Z,74.48
2018-10-17T06:20:44.142Z,73.61
2018-10-17T06:23:13.142Z,73.12
2018-10-17T06:28:47.090Z,73.47
2018-10-17T06:31:15.836Z,73.31
2018-10-17T06:33:44.337Z,72.54
2018-10-17T06:36:12.947Z,72.13
2018-10-17T06:38:41.500Z,72.03
2018-10-17T06:41:10.253Z,71.78
2018-10-17T06:43:38.821Z,71.68
2018-10-17T06:46:07.313Z,71.92
2018-10-17T06:48:38.391Z,70.47
2018-10-17T06:51:07.035Z,68.29
2018-10-17T06:53:35.572Z,67.22
2018-10-17T06:56:04.170Z,65.93
2018-10-17T06:58:32.786Z,63.66
2018-10-17T07:01:01.625Z,63.35
2018-10-17T07:03:31.049Z,63.91
2018-10-17T07:06:01.396Z,64.23
2018-10-17T07:08:31.754Z,64.95
2018-10-17T07:11:01.177Z,64.08
2018-10-17T07:13:31.459Z,62.37
2018-10-17T07:16:01.764Z,60.16
2018-10-17T07:18:31.406Z,57.77
2018-10-17T07:21:01.473Z,54.58
2018-10-17T07:23:30.964Z,55.16
2018-10-17T07:26:01.076Z,54.79
2018-10-17T07:28:30.895Z,55.53
2018-10-17T07:31:01.246Z,53.24
2018-10-17T07:33:30.812Z,52.11
2018-10-17T07:36:01.766Z,52.64
2018-10-17T07:38:32.486Z,52.66
2018-10-17T07:41:01.851Z,50.65
2018-10-17T07:43:34.280Z,51.34
2018-10-17T07:46:03.900Z,51.99
2018-10-17T07:48:33.428Z,52.56
2018-10-17T07:51:03.558Z,53.22
2018-10-17T07:53:32.477Z,53.29
2018-10-17T07:56:01.732Z,54.19
2018-10-17T07:58:30.784Z,54.35
2018-10-17T08:00:59.971Z,54.38
2018-10-17T08:03:31.098Z,54.99
2018-10-17T08:05:59.990Z,55.23
2018-10-17T08:08:29.611Z,54.19
2018-10-17T08:11:00.052Z,53.23
2018-10-17T08:13:29.590Z,50.52
2018-10-17T08:16:00.312Z,50.34
2018-10-17T08:18:31.639Z,50.83
2018-10-17T08:21:01.467Z,50.86
2018-10-17T08:23:30.883Z,50.26
2018-10-17T08:25:59.959Z,51.92
2018-10-17T08:28:29.465Z,53.28
2018-10-17T08:30:58.834Z,53.99
2018-10-17T08:33:30.287Z,51.80
2018-10-17T08:35:59.864Z,47.22
2018-10-17T08:38:29.231Z,46.04
2018-10-17T08:40:58.707Z,46.15
2018-10-17T08:43:28.011Z,47.26
2018-10-17T08:45:57.082Z,46.13
2018-10-17T08:48:27.753Z,45.03
2018-10-17T08:50:57.615Z,44.13
2018-10-17T08:53:27.758Z,41.86
2018-10-17T08:55:56.960Z,40.66
2018-10-17T08:58:25.802Z,39.63
2018-10-17T09:00:54.694Z,38.65
2018-10-17T09:03:24.700Z,38.72
2018-10-17T09:05:53.763Z,39.52
2018-10-17T09:08:24.806Z,40.96
2018-10-17T09:10:53.852Z,42.09
2018-10-17T09:13:24.809Z,43.76
2018-10-17T09:15:53.762Z,44.53
2018-10-17T09:18:22.652Z,45.15
2018-10-17T09:20:52.430Z,46.06
2018-10-17T09:23:21.644Z,45.96
2018-10-17T09:25:52.842Z,44.87
2018-10-17T09:28:21.709Z,42.20
2018-10-17T09:30:50.560Z,41.92
2018-10-17T09:33:19.418Z,43.46
2018-10-17T09:35:48.370Z,44.71
2018-10-17T09:38:17.415Z,45.85
2018-10-17T09:40:46.349Z,45.72
2018-10-17T09:43:15.558Z,45.19
2018-10-17T09:45:44.485Z,42.82
2018-10-17T09:48:13.477Z,41.47
2018-10-17T09:50:42.253Z,41.20
2018-10-17T09:53:12.293Z,39.45
2018-10-17T09:55:41.516Z,40.24
2018-10-17T09:58:10.317Z,39.41
2018-10-17T10:00:44.339Z,40.12
2018-10-17T10:03:13.174Z,38.83
2018-10-17T10:05:42.028Z,39.32
2018-10-17T10:08:10.858Z,39.10
2018-10-17T10:10:40.144Z,39.49
2018-10-17T10:13:09.082Z,40.29
2018-10-17T10:15:38.306Z,40.03
2018-10-17T10:18:07.250Z,39.01
2018-10-17T10:20:36.110Z,37.41
2018-10-17T10:23:05.116Z,38.59
2018-10-17T10:25:34.033Z,39.53
2018-10-17T10:28:03.652Z,39.67
2018-10-17T10:30:32.529Z,38.08
2018-10-17T10:33:02.327Z,37.38
2018-10-17T10:35:34.711Z,38.07
2018-10-17T10:38:03.686Z,36.74
2018-10-17T10:40:32.590Z,37.25
2018-10-17T10:43:01.856Z,37.66
2018-10-17T10:45:31.111Z,38.35
2018-10-17T10:48:00.130Z,37.38
2018-10-17T10:50:28.871Z,36.05
2018-10-17T10:52:57.779Z,36.57
2018-10-17T10:55:26.611Z,36.15
2018-10-17T10:57:55.901Z,36.39
2018-10-17T11:00:24.695Z,36.25
2018-10-17T11:02:53.574Z,35.62
2018-10-17T11:05:22.542Z,35.67
2018-10-17T11:07:51.332Z,37.12
2018-10-17T11:10:20.427Z,37.22
2018-10-17T11:12:49.327Z,36.99
2018-10-17T11:15:18.299Z,37.92
2018-10-17T11:17:47.578Z,38.85
2018-10-17T11:20:16.455Z,37.52
2018-10-17T11:22:45.277Z,37.15
2018-10-17T11:25:14.125Z,36.50
2018-10-17T11:27:42.911Z,35.73
2018-10-17T11:30:12.514Z,36.11
2018-10-17T11:32:41.636Z,35.69
2018-10-17T11:35:11.684Z,35.28
2018-10-17T11:37:40.415Z,35.34
2018-10-17T11:40:09.611Z,34.82
2018-10-17T11:42:38.354Z,34.54
2018-10-17T11:45:07.299Z,34.81
2018-10-17T11:47:36.851Z,35.33
2018-10-17T11:50:07.533Z,35.11
2018-10-17T11:52:36.440Z,35.41
2018-10-17T11:55:06.512Z,35.66
2018-10-17T11:57:35.389Z,36.32
2018-10-17T12:00:04.530Z,36.33
2018-10-17T12:02:33.477Z,36.92
2018-10-17T12:05:03.829Z,36.39
2018-10-17T12:07:32.589Z,36.55
2018-10-17T12:10:01.513Z,35.48
2018-10-17T12:12:30.278Z,35.45
2018-10-17T12:14:59.256Z,36.00
2018-10-17T12:17:28.223Z,36.42
2018-10-17T12:19:58.223Z,36.42
2018-10-17T12:22:27.076Z,36.62
2018-10-17T12:24:56.012Z,34.31
2018-10-17T12:27:24.930Z,35.05
2018-10-17T12:29:54.185Z,35.10
2018-10-17T12:32:23.133Z,36.46
2018-10-17T12:34:52.101Z,36.69
2018-10-17T12:37:20.978Z,36.68
2018-10-17T12:39:49.869Z,36.98
2018-10-17T12:42:18.763Z,36.29
2018-10-17T12:44:49.571Z,36.73
2018-10-17T12:47:18.465Z,36.06
2018-10-17T12:49:47.322Z,35.41
2018-10-17T12:52:16.370Z,35.65
2018-10-17T12:54:45.170Z,36.67
2018-10-17T12:57:15.415Z,35.59
2018-10-17T12:59:49.802Z,35.19
2018-10-17T13:02:18.667Z,35.24
2018-10-17T13:04:47.894Z,34.11
2018-10-17T13:07:16.904Z,33.58
2018-10-17T13:09:45.704Z,33.87
2018-10-17T13:12:14.535Z,32.36
2018-10-17T13:14:43.576Z,34.24
2018-10-17T13:17:12.492Z,34.79
2018-10-17T13:19:41.390Z,33.80
2018-10-17T13:22:11.432Z,35.47
2018-10-17T13:24:40.677Z,36.71
2018-10-17T13:27:09.523Z,36.97
2018-10-17T13:29:38.386Z,37.81
2018-10-17T13:32:07.222Z,35.22
2018-10-17T13:34:36.122Z,35.33
2018-10-17T13:37:05.316Z,35.77
2018-10-17T13:39:34.135Z,35.11
2018-10-17T13:42:03.012Z,37.21
2018-10-17T13:44:31.767Z,37.08
2018-10-17T13:47:01.021Z,37.23
2018-10-17T13:49:29.845Z,37.36
2018-10-17T13:51:58.810Z,37.04
2018-10-17T13:54:27.602Z,37.38
2018-10-17T13:56:56.465Z,36.53
2018-10-17T13:59:25.451Z,35.96
2018-10-17T14:01:54.271Z,36.88
2018-10-17T14:04:23.104Z,35.15
2018-10-17T14:09:43.032Z,35.50
2018-10-17T14:12:11.950Z,36.18
2018-10-17T14:14:41.262Z,36.54
2018-10-17T14:17:10.155Z,36.91
2018-10-17T14:19:39.112Z,37.28
2018-10-17T14:22:08.940Z,38.04
2018-10-17T14:24:37.803Z,38.65
2018-10-17T14:27:07.392Z,40.00
2018-10-17T14:29:36.464Z,39.81
2018-10-17T14:32:06.431Z,40.88
2018-10-17T14:34:35.520Z,40.87
2018-10-17T14:37:04.430Z,41.31
2018-10-17T14:39:33.337Z,41.08
2018-10-17T14:42:02.240Z,40.50
2018-10-17T14:44:31.365Z,40.14
2018-10-17T14:47:00.241Z,40.10
2018-10-17T14:49:29.560Z,40.58
2018-10-17T14:51:58.339Z,40.67
2018-10-17T14:54:27.218Z,40.36
2018-10-17T14:56:56.040Z,42.19
2018-10-17T14:59:24.937Z,41.79
2018-10-17T15:01:54.237Z,41.22
2018-10-17T15:04:23.148Z,41.88
2018-10-17T15:06:52.016Z,41.82
2018-10-17T15:09:20.912Z,42.25
2018-10-17T15:11:50.079Z,42.30
2018-10-17T15:14:18.744Z,42.28
2018-10-17T15:16:48.386Z,42.63
2018-10-17T15:19:17.240Z,42.39
2018-10-17T15:21:46.168Z,41.70
2018-10-17T15:24:15.161Z,41.04
2018-10-17T15:26:44.226Z,41.99
2018-10-17T15:29:13.028Z,42.20
2018-10-17T15:31:41.893Z,42.24
2018-10-17T15:34:10.827Z,42.88
2018-10-17T15:36:39.647Z,42.98
2018-10-17T15:39:10.128Z,43.33
2018-10-17T15:41:39.100Z,43.50
2018-10-17T15:44:08.463Z,44.09
2018-10-17T15:46:37.560Z,44.30
2018-10-17T15:49:07.107Z,44.87
2018-10-17T15:51:35.997Z,45.35
2018-10-17T15:54:05.449Z,45.93
2018-10-17T15:56:34.254Z,46.88
2018-10-17T15:59:03.080Z,47.52
2018-10-17T16:01:31.935Z,47.33
2018-10-17T16:04:00.881Z,47.86
2018-10-17T16:06:30.171Z,48.72
2018-10-17T16:08:58.984Z,48.83
2018-10-17T16:11:28.234Z,49.80
2018-10-17T16:13:57.562Z,50.29
2018-10-17T16:16:26.681Z,51.63
2018-10-17T16:18:56.416Z,51.88
2018-10-17T16:21:25.769Z,52.34
2018-10-17T16:23:55.768Z,52.35
2018-10-17T16:26:25.052Z,52.48
2018-10-17T16:29:01.629Z,53.41
2018-10-17T16:31:37.825Z,53.55
2018-10-17T16:34:09.087Z,53.54
2018-10-17T16:36:37.816Z,54.09
2018-10-17T16:39:09.693Z,54.80
2018-10-17T16:41:39.308Z,55.45
2018-10-17T16:44:08.768Z,55.53
2018-10-17T16:46:38.324Z,57.04
2018-10-17T16:49:08.102Z,57.10
2018-10-17T16:51:37.190Z,57.36
2018-10-17T16:54:06.271Z,57.07
2018-10-17T16:56:35.190Z,57.83
2018-10-17T16:59:04.710Z,58.55
2018-10-17T17:01:33.559Z,59.08
2018-10-17T17:04:03.600Z,59.61
2018-10-17T17:06:32.723Z,59.33
2018-10-17T17:09:02.593Z,60.24
2018-10-17T17:11:33.979Z,60.53
2018-10-17T17:14:02.923Z,59.93
2018-10-17T17:16:31.932Z,60.58
2018-10-17T17:19:02.857Z,60.73
2018-10-17T17:21:31.851Z,61.27
2018-10-17T17:24:00.682Z,61.44
2018-10-17T17:26:29.579Z,62.09
2018-10-17T17:28:58.443Z,62.46
2018-10-17T17:31:27.700Z,62.21
2018-10-17T17:33:56.555Z,62.18
2018-10-17T17:36:25.540Z,62.94
2018-10-17T17:38:54.366Z,62.95
2018-10-17T17:41:24.061Z,63.63
2018-10-17T17:43:52.959Z,63.32
2018-10-17T17:46:24.037Z,63.25
2018-10-17T17:48:52.943Z,63.62
2018-10-17T17:51:22.119Z,62.88
2018-10-17T17:53:51.020Z,63.28
2018-10-17T17:56:19.886Z,63.91
2018-10-17T17:58:48.908Z,63.86
2018-10-17T18:01:18.645Z,63.82
2018-10-17T18:03:47.952Z,63.34
2018-10-17T18:06:16.840Z,63.54
2018-10-17T18:08:45.777Z,63.99
2018-10-17T18:11:23.152Z,63.97
2018-10-17T18:13:53.144Z,64.60
2018-10-17T18:16:22.041Z,64.98
2018-10-17T18:18:50.873Z,64.63
2018-10-17T18:21:19.697Z,64.80
2018-10-17T18:23:48.523Z,64.76
2018-10-17T18:26:17.364Z,64.77
2018-10-17T18:28:46.577Z,65.36
2018-10-17T18:31:15.368Z,65.73
2018-10-17T18:33:44.318Z,65.99
2018-10-17T18:36:23.839Z,66.11
2018-10-17T18:38:52.916Z,66.09
2018-10-17T18:41:21.832Z,66.40
2018-10-17T18:43:51.152Z,66.16
2018-10-17T18:46:22.579Z,66.67
2018-10-17T18:48:52.238Z,66.86
2018-10-17T18:51:21.134Z,67.27
2018-10-17T18:53:50.016Z,66.83
2018-10-17T18:56:19.016Z,66.66
2018-10-17T18:58:47.869Z,66.63
2018-10-17T19:01:17.304Z,67.26
2018-10-17T19:03:46.484Z,67.85
2018-10-17T19:06:15.623Z,67.59
2018-10-17T19:08:44.971Z,67.67
2018-10-17T19:11:16.298Z,67.92
2018-10-17T19:13:47.456Z,68.71
2018-10-17T19:16:16.435Z,68.91
2018-10-17T19:18:46.315Z,68.85
2018-10-17T19:21:15.970Z,68.79
2018-10-17T19:23:44.902Z,68.48
2018-10-17T19:26:14.311Z,69.49
2018-10-17T19:28:43.613Z,70.10
2018-10-17T19:31:12.884Z,69.65
2018-10-17T19:33:42.201Z,69.87
2018-10-17T19:36:11.130Z,69.72
2018-10-17T19:38:39.930Z,69.89
2018-10-17T19:41:09.074Z,70.78
2018-10-17T19:43:38.095Z,70.33
2018-10-17T19:46:07.943Z,70.02
2018-10-17T19:48:39.834Z,70.13
2018-10-17T19:51:08.777Z,69.87
2018-10-17T19:53:38.232Z,70.32
2018-10-17T19:56:07.134Z,70.08
2018-10-17T19:58:39.171Z,70.67
2018-10-17T20:01:08.122Z,70.90
2018-10-17T20:03:36.973Z,70.90
2018-10-17T20:06:06.193Z,70.82
2018-10-17T20:08:36.534Z,71.11
2018-10-17T20:11:05.605Z,71.33
2018-10-17T20:13:34.644Z,71.19
2018-10-17T20:16:03.565Z,70.74
2018-10-17T20:18:32.378Z,70.97
2018-10-17T20:21:01.703Z,71.20
2018-10-17T20:23:30.516Z,71.56
2018-10-17T20:25:59.737Z,71.62
2018-10-17T20:28:28.697Z,71.56
2018-10-17T20:31:38.553Z,71.59
2018-10-17T20:34:08.107Z,71.76
2018-10-17T20:36:36.947Z,71.34
2018-10-17T20:39:09.719Z,71.41
2018-10-17T20:41:38.878Z,71.90
2018-10-17T20:44:07.770Z,71.63
2018-10-17T20:46:37.419Z,71.80
2018-10-17T20:49:06.863Z,71.93
2018-10-17T20:51:35.819Z,72.06
2018-10-17T20:54:04.718Z,71.85
2018-10-17T20:56:34.036Z,72.35
2018-10-17T20:59:02.887Z,71.81
2018-10-17T21:01:32.047Z,72.16
2018-10-17T21:04:00.844Z,72.40
2018-10-17T21:06:29.790Z,72.55
2018-10-17T21:08:58.580Z,72.77
2018-10-17T21:11:27.541Z,73.13
2018-10-17T21:13:56.365Z,73.24
2018-10-17T21:16:26.440Z,73.62
2018-10-17T21:18:55.533Z,74.26
2018-10-17T21:21:24.596Z,74.29
2018-10-17T21:23:53.396Z,74.17
2018-10-17T21:26:23.479Z,74.34
2018-10-17T21:28:55.025Z,75.08
2018-10-17T21:31:28.012Z,76.58
2018-10-17T21:33:58.746Z,76.28
2018-10-17T21:36:27.787Z,75.35
2018-10-17T21:38:57.447Z,75.54
2018-10-17T21:41:26.268Z,76.99
2018-10-17T21:43:55.290Z,76.70
2018-10-17T21:46:25.681Z,76.48
2018-10-17T21:48:55.771Z,76.73
2018-10-17T21:51:24.685Z,76.59
2018-10-17T21:53:54.913Z,76.82
2018-10-17T21:56:23.740Z,76.99
2018-10-17T21:58:53.594Z,76.60
2018-10-17T22:01:22.527Z,77.17
2018-10-17T22:03:51.355Z,77.61
2018-10-17T22:06:20.195Z,78.16
2018-10-17T22:08:49.123Z,78.61
2018-10-17T22:11:18.003Z,78.37
2018-10-17T22:13:46.904Z,78.14
2018-10-17T22:16:15.978Z,78.03
2018-10-17T22:18:46.350Z,77.72
2018-10-17T22:21:15.219Z,77.25
2018-10-17T22:23:44.232Z,76.81
2018-10-17T22:26:13.226Z,77.22
2018-10-17T22:28:42.506Z,77.52
2018-10-17T22:31:11.274Z,77.31
2018-10-17T22:33:40.141Z,77.13
2018-10-17T22:36:09.445Z,77.38
2018-10-17T22:38:38.421Z,77.17
2018-10-17T22:41:07.754Z,77.21
2018-10-17T22:43:37.097Z,76.48
2018-10-17T22:46:06.251Z,77.29
2018-10-17T22:48:35.115Z,77.07
2018-10-17T22:51:03.963Z,77.59
2018-10-17T22:53:32.803Z,77.37
2018-10-17T22:56:01.663Z,77.72
2018-10-17T22:58:30.551Z,77.46
2018-10-17T23:00:59.418Z,77.38
2018-10-17T23:03:29.008Z,77.79
2018-10-17T23:05:57.837Z,77.72
2018-10-17T23:08:27.022Z,78.18
2018-10-17T23:10:55.951Z,77.69
2018-10-17T23:13:24.799Z,77.73
2018-10-17T23:15:53.752Z,78.02
2018-10-17T23:18:22.617Z,78.76
2018-10-17T23:20:51.471Z,79.28
2018-10-17T23:23:20.368Z,78.64
2018-10-17T23:25:49.121Z,78.68
2018-10-17T23:28:18.052Z,78.64
2018-10-17T23:30:46.902Z,78.42
2018-10-17T23:33:15.681Z,77.76
2018-10-17T23:35:44.538Z,77.77
2018-10-17T23:38:13.482Z,78.00
2018-10-17T23:40:42.335Z,78.59
2018-10-17T23:43:11.458Z,78.59
2018-10-17T23:45:40.505Z,78.63
2018-10-17T23:48:10.267Z,79.25
2018-10-17T23:50:39.730Z,79.37
2018-10-17T23:53:10.177Z,79.10
2018-10-17T23:55:39.050Z,78.70
2018-10-17T23:58:07.962Z,78.68
